Time;durP1;ratioP1;P1;durP2;ratioP2;P2;SDS_P1;SDS_P2;PMS_P1;PMS_P2;Temp;Humidity;BMP_temperature;BMP_pressure;BME280_temperature;BME280_humidity;BME280_pressure;Samples;Min_cycle;Max_cycle;Signal;HPM_P1;HPM_P2
2023/02/13 00:01:16;;;;;;;38.20;20.60;;;;;;;4.90;76.94;98564.75;5052199;28;20414;-79
2023/02/13 00:03:45;;;;;;;40.03;21.60;;;;;;;4.89;77.21;98571.66;5054070;28;20434;-79
2023/02/13 00:06:13;;;;;;;35.63;20.38;;;;;;;4.85;76.67;98562.44;5056092;28;20049;-80
2023/02/13 00:08:41;;;;;;;39.33;21.40;;;;;;;4.82;76.58;98561.84;5055479;28;20145;-79
2023/02/13 00:11:10;;;;;;;36.70;20.23;;;;;;;4.78;76.79;98556.00;5055614;28;20056;-79
2023/02/13 00:13:43;;;;;;;36.08;20.13;;;;;;;4.79;76.97;98565.44;5056094;28;20541;-80
2023/02/13 00:19:11;;;;;;;34.75;19.33;;;;;;;4.79;77.04;98562.84;5075590;28;20076;-82
2023/02/13 00:21:53;;;;;;;35.88;20.02;;;;;;;4.75;77.18;98567.38;5062484;28;20047;-81
2023/02/13 00:24:33;;;;;;;32.72;18.42;;;;;;;4.73;76.90;98569.22;5057846;28;20059;-80
2023/02/13 00:27:17;;;;;;;35.10;19.90;;;;;;;4.70;76.45;98563.41;5065387;28;20052;-81
2023/02/13 00:32:53;;;;;;;31.35;18.20;;;;;;;4.63;77.34;98567.31;5049149;28;20072;-80
2023/02/13 00:35:34;;;;;;;35.42;19.15;;;;;;;4.57;76.15;98563.38;5056219;28;20132;-80
2023/02/13 00:38:12;;;;;;;32.75;18.48;;;;;;;4.51;76.23;98574.91;5076948;28;20077;-81
2023/02/13 00:43:40;;;;;;;30.85;18.05;;;;;;;4.51;76.50;98569.75;5063647;28;20491;-79
2023/02/13 00:46:16;;;;;;;35.67;19.52;;;;;;;4.53;76.02;98572.25;5078783;28;20075;-80
2023/02/13 00:48:50;;;;;;;32.67;18.75;;;;;;;4.53;76.63;98575.66;5078365;28;20048;-81
2023/02/13 00:51:22;;;;;;;30.00;17.17;;;;;;;4.50;76.36;98573.28;5061037;28;20419;-81
2023/02/13 00:57:14;;;;;;;33.58;18.33;;;;;;;4.49;76.75;98569.00;5055830;28;20107;-80
2023/02/13 01:02:37;;;;;;;31.30;18.50;;;;;;;4.47;76.64;98570.03;5055576;28;20494;-80
2023/02/13 01:05:13;;;;;;;30.08;17.45;;;;;;;4.46;76.21;98573.53;5055665;28;20049;-80
2023/02/13 01:07:51;;;;;;;33.20;17.77;;;;;;;4.41;75.99;98563.47;5055265;28;20052;-80
2023/02/13 01:10:22;;;;;;;29.33;16.77;;;;;;;4.40;76.54;98561.00;5055633;28;20098;-80
2023/02/13 01:12:59;;;;;;;30.38;16.95;;;;;;;4.38;77.17;98557.69;5055222;28;20052;-80
2023/02/13 01:15:31;;;;;;;31.92;18.83;;;;;;;4.38;77.29;98561.09;5055794;28;20057;-80
2023/02/13 01:18:03;;;;;;;29.95;16.73;;;;;;;4.38;77.65;98558.50;5054640;28;20049;-80
2023/02/13 01:20:36;;;;;;;28.52;17.08;;;;;;;4.39;76.88;98564.50;5037834;28;20426;-80
2023/02/13 01:23:12;;;;;;;32.35;18.33;;;;;;;4.39;76.90;98559.34;5055448;28;20072;-80
2023/02/13 01:25:50;;;;;;;31.52;16.92;;;;;;;4.40;78.11;98559.25;5054712;28;20049;-80
2023/02/13 01:28:31;;;;;;;28.88;16.92;;;;;;;4.42;77.64;98565.16;5056949;28;20057;-81
2023/02/13 01:31:09;;;;;;;26.65;16.17;;;;;;;4.38;77.27;98561.09;5038420;28;20081;-80
2023/02/13 01:33:57;;;;;;;25.17;15.75;;;;;;;4.38;76.79;98558.50;5053642;28;20051;-80
2023/02/13 01:36:42;;;;;;;28.75;15.88;;;;;;;4.39;76.85;98557.56;5054717;28;20517;-80
2023/02/13 01:39:16;;;;;;;28.70;16.60;;;;;;;4.41;77.29;98549.75;5054785;28;20053;-80
2023/02/13 01:41:53;;;;;;;;;;;;;;;4.45;78.31;98553.78;5055222;28;20481;-80
2023/02/13 01:44:52;;;;;;;26.45;15.45;;;;;;;4.45;77.49;98549.44;5053942;28;19928;-80
2023/02/13 01:47:33;;;;;;;23.52;14.70;;;;;;;4.42;76.66;98534.16;5054135;28;20464;-80
2023/02/13 01:50:23;;;;;;;27.15;15.38;;;;;;;4.42;76.39;98538.50;5053777;28;20098;-80
2023/02/13 01:53:11;;;;;;;26.73;15.27;;;;;;;4.43;75.84;98538.38;5054507;28;20049;-80
2023/02/13 01:56:01;;;;;;;27.90;15.50;;;;;;;4.43;76.60;98529.81;5054419;28;20049;-80
2023/02/13 01:58:39;;;;;;;26.52;14.88;;;;;;;4.37;75.68;98525.81;5054286;28;20567;-80
2023/02/13 02:01:16;;;;;;;27.98;16.40;;;;;;;4.33;75.66;98534.72;5054337;28;20517;-80
2023/02/13 02:04:01;;;;;;;27.15;15.88;;;;;;;4.29;75.81;98528.09;5054163;28;20515;-80
2023/02/13 02:06:39;;;;;;;25.35;15.55;;;;;;;4.23;75.80;98526.69;5053787;28;20060;-80
2023/02/13 02:09:27;;;;;;;30.48;17.17;;;;;;;4.20;76.62;98534.63;5054137;28;20059;-80
2023/02/13 02:12:11;;;;;;;24.98;15.50;;;;;;;4.15;75.83;98525.50;5054063;28;20136;-80
2023/02/13 02:14:42;;;;;;;26.67;15.48;;;;;;;4.10;75.99;98533.53;5036888;28;20056;-80
2023/02/13 02:17:18;;;;;;;27.70;14.63;;;;;;;4.08;76.10;98525.88;5053578;28;20103;-80
2023/02/13 02:20:16;;;;;;;29.25;16.98;;;;;;;4.07;76.77;98528.56;5037654;28;20830;-80
2023/02/13 02:23:20;;;;;;;33.08;17.00;;;;;;;4.06;76.84;98521.72;5054667;28;20045;-80
2023/02/13 02:26:35;;;;;;;29.02;16.95;;;;;;;4.07;77.01;98524.22;5053295;28;20140;-80
2023/02/13 02:29:44;;;;;;;30.70;17.35;;;;;;;4.09;76.24;98522.38;5051474;28;20057;-80
2023/02/13 02:32:46;;;;;;;33.53;19.10;;;;;;;4.06;76.00;98522.56;5052963;28;20056;-80
2023/02/13 02:35:31;;;;;;;31.70;17.58;;;;;;;4.06;76.62;98522.56;5054069;28;20474;-80
2023/02/13 02:41:40;;;;;;;29.48;17.02;;;;;;;4.04;76.41;98521.00;5054710;28;20057;-82
2023/02/13 02:44:14;;;;;;;31.75;17.75;;;;;;;4.03;78.33;98511.59;5072856;28;20049;-81
2023/02/13 02:50:01;;;;;;;26.25;16.27;;;;;;;4.02;77.92;98515.09;5050895;28;20284;-78
2023/02/13 02:52:42;;;;;;;27.75;16.60;;;;;;;4.04;78.51;98510.66;5052357;28;20456;-78
2023/02/13 02:55:22;;;;;;;29.95;16.42;;;;;;;4.00;78.31;98512.63;5052475;28;20059;-78
2023/02/13 03:06:21;;;;;;;24.15;15.00;;;;;;;3.86;77.41;98513.44;5072564;28;20052;-77
2023/02/13 03:14:21;;;;;;;24.73;14.25;;;;;;;3.74;76.94;98513.34;5072304;28;20135;-77
2023/02/13 03:22:41;;;;;;;21.75;12.55;;;;;;;3.65;76.76;98520.72;5089510;28;20075;-77
2023/02/13 03:25:17;;;;;;;19.02;11.65;;;;;;;3.62;77.24;98518.31;5073765;28;20048;-77
2023/02/13 03:31:00;;;;;;;22.17;13.63;;;;;;;3.60;77.42;98529.66;5011088;28;20074;-78
2023/02/13 03:33:50;;;;;;;21.85;13.15;;;;;;;3.58;77.30;98532.31;5062202;28;20110;-77
2023/02/13 03:39:21;;;;;;;24.90;13.65;;;;;;;3.46;77.88;98536.44;5073775;28;20498;-78
2023/02/13 03:41:55;;;;;;;21.33;13.07;;;;;;;3.42;77.36;98547.88;5076254;28;20052;-77
2023/02/13 03:44:28;;;;;;;20.35;12.45;;;;;;;3.38;77.04;98542.97;5075781;28;20045;-77
2023/02/13 03:47:00;;;;;;;18.88;12.57;;;;;;;3.30;76.29;98536.53;5075796;28;20152;-78
2023/02/13 03:52:21;;;;;;;21.25;12.65;;;;;;;3.18;76.53;98546.69;5075760;28;20143;-77
2023/02/13 04:00:30;;;;;;;19.65;12.13;;;;;;;2.92;75.96;98549.00;5075481;28;20056;-77
2023/02/13 04:03:02;;;;;;;20.23;12.15;;;;;;;2.83;76.78;98549.50;5075410;28;20059;-77
2023/02/13 04:05:32;;;;;;;18.98;12.32;;;;;;;2.73;76.68;98551.75;5075935;28;20455;-77
2023/02/13 04:07:59;;;;;;;17.73;11.63;;;;;;;2.73;77.67;98558.66;5075234;28;20044;-77
2023/02/13 04:10:35;;;;;;;18.45;11.55;;;;;;;2.75;77.60;98560.22;5075527;28;20388;-77
2023/02/13 04:13:10;;;;;;;17.42;11.32;;;;;;;2.74;76.78;98560.34;5075654;28;20423;-77
2023/02/13 04:15:43;;;;;;;17.30;10.60;;;;;;;2.73;77.35;98563.81;5075420;28;20059;-77
2023/02/13 04:18:15;;;;;;;19.30;12.00;;;;;;;2.72;78.03;98565.56;5074835;28;20419;-77
2023/02/13 04:20:43;;;;;;;17.73;11.02;;;;;;;2.73;77.50;98574.13;5075242;28;20417;-77
2023/02/13 04:23:12;;;;;;;17.42;11.13;;;;;;;2.67;76.64;98572.72;5075324;28;20076;-77
2023/02/13 04:25:44;;;;;;;17.60;10.88;;;;;;;2.60;76.69;98579.09;5075146;28;20058;-77
2023/02/13 04:28:11;;;;;;;19.45;11.73;;;;;;;2.57;76.92;98579.28;5074418;28;20048;-77
2023/02/13 04:30:39;;;;;;;17.25;10.88;;;;;;;2.54;76.98;98571.75;5075084;28;20391;-77
2023/02/13 04:33:09;;;;;;;18.17;10.93;;;;;;;2.51;76.95;98574.47;5074833;28;20514;-78
2023/02/13 04:35:36;;;;;;;18.85;11.77;;;;;;;2.45;76.99;98576.47;5074891;28;20052;-77
2023/02/13 04:38:04;;;;;;;16.30;9.75;;;;;;;2.43;77.63;98577.47;5074274;28;20143;-77
2023/02/13 04:40:32;;;;;;;20.77;11.10;;;;;;;2.41;77.52;98574.13;5074848;28;20076;-77
2023/02/13 04:43:01;;;;;;;17.38;10.30;;;;;;;2.37;77.54;98575.22;5074686;28;20502;-77
2023/02/13 04:45:28;;;;;;;19.85;11.90;;;;;;;2.34;77.55;98573.63;5074854;28;20507;-77
2023/02/13 04:47:57;;;;;;;19.23;11.07;;;;;;;2.31;77.78;98571.19;5073663;28;20213;-77
2023/02/13 04:50:25;;;;;;;17.23;11.25;;;;;;;2.32;77.78;98574.59;5074311;28;20488;-77
2023/02/13 04:52:54;;;;;;;18.55;10.55;;;;;;;2.33;78.53;98566.81;5074549;28;20075;-77
2023/02/13 04:55:22;;;;;;;17.65;10.90;;;;;;;2.36;78.38;98571.81;5074534;28;20421;-78
2023/02/13 04:57:52;;;;;;;16.48;10.18;;;;;;;2.36;77.44;98571.81;5073988;28;20490;-77
2023/02/13 05:00:22;;;;;;;17.50;11.07;;;;;;;2.33;77.82;98571.94;5074622;28;20155;-78
2023/02/13 05:02:50;;;;;;;17.95;11.45;;;;;;;2.34;77.96;98572.78;5074612;28;20049;-77
2023/02/13 05:05:17;;;;;;;17.55;10.65;;;;;;;2.37;77.64;98570.88;5074133;28;20049;-78
2023/02/13 05:07:45;;;;;;;17.45;10.52;;;;;;;2.39;77.56;98571.63;5073611;28;20131;-77
2023/02/13 05:10:13;;;;;;;19.15;10.65;;;;;;;2.41;77.45;98580.09;5074595;28;20052;-77
2023/02/13 05:12:40;;;;;;;15.88;10.00;;;;;;;2.40;76.96;98570.69;5074323;28;20044;-77
2023/02/13 05:15:09;;;;;;;18.25;11.00;;;;;;;2.35;77.23;98569.31;5073948;28;20104;-77
2023/02/13 05:17:38;;;;;;;20.60;12.27;;;;;;;2.37;77.54;98581.19;5073872;28;20596;-78
2023/02/13 05:20:07;;;;;;;20.02;12.68;;;;;;;2.41;77.57;98580.09;5074147;28;20056;-77
2023/02/13 05:25:19;;;;;;;16.27;10.50;;;;;;;2.38;77.45;98577.69;5071958;28;20050;-77
2023/02/13 05:27:47;;;;;;;15.63;10.25;;;;;;;2.42;77.85;98580.94;5053142;28;20514;-77
2023/02/13 05:30:15;;;;;;;17.73;11.13;;;;;;;2.42;77.79;98581.75;5062178;28;20403;-76
2023/02/13 05:32:44;;;;;;;20.10;12.10;;;;;;;2.42;78.04;98586.91;5072130;28;20083;-77
2023/02/13 05:35:12;;;;;;;18.08;11.70;;;;;;;2.44;77.60;98590.25;5073797;28;20041;-78
2023/02/13 05:37:40;;;;;;;16.33;11.27;;;;;;;2.41;77.29;98587.84;5073698;28;20494;-77
2023/02/13 05:40:08;;;;;;;18.50;11.88;;;;;;;2.38;77.48;98587.97;5073316;28;20048;-77
2023/02/13 05:42:36;;;;;;;19.77;11.88;;;;;;;2.36;77.27;98582.09;5073808;28;20050;-77
2023/02/13 05:45:04;;;;;;;18.40;12.15;;;;;;;2.38;77.80;98579.44;5072839;28;20071;-75
2023/02/13 05:47:32;;;;;;;17.00;10.80;;;;;;;2.37;77.27;98577.78;5064766;28;20056;-78
2023/02/13 05:50:01;;;;;;;18.55;11.98;;;;;;;2.35;77.92;98575.28;5073102;28;20084;-78
2023/02/13 05:52:28;;;;;;;18.45;12.00;;;;;;;2.37;78.24;98577.78;5069532;28;20154;-78
2023/02/13 05:54:56;;;;;;;15.70;10.90;;;;;;;2.37;77.38;98572.63;5074468;28;20049;-78
2023/02/13 05:57:23;;;;;;;14.63;10.23;;;;;;;2.37;77.17;98575.22;5073634;28;20540;-77
2023/02/13 05:59:51;;;;;;;16.05;10.40;;;;;;;2.36;76.83;98576.09;5073183;28;20139;-78
2023/02/13 06:02:18;;;;;;;19.27;12.57;;;;;;;2.32;76.83;98578.03;5071819;28;20063;-78
2023/02/13 06:04:46;;;;;;;16.13;11.25;;;;;;;2.32;77.05;98575.44;5073467;28;20043;-78
2023/02/13 06:07:15;;;;;;;14.90;10.35;;;;;;;2.29;77.00;98570.44;5074258;28;20063;-77
2023/02/13 06:09:42;;;;;;;16.88;11.00;;;;;;;2.24;77.20;98569.88;5085885;28;20413;-77
2023/02/13 06:12:10;;;;;;;17.88;11.35;;;;;;;2.24;77.81;98575.84;5077274;28;20139;-78
2023/02/13 06:14:37;;;;;;;15.50;10.77;;;;;;;2.27;77.78;98577.41;5069411;28;20720;-77
2023/02/13 06:17:05;;;;;;;15.63;10.43;;;;;;;2.25;76.79;98584.38;5072796;28;20128;-77
2023/02/13 06:19:33;;;;;;;17.95;11.60;;;;;;;2.21;76.76;98582.91;5072475;28;20054;-78
2023/02/13 06:22:00;;;;;;;14.82;10.60;;;;;;;2.19;76.73;98584.75;5073160;28;20044;-77
2023/02/13 06:24:29;;;;;;;17.85;11.07;;;;;;;2.19;76.82;98584.75;5072497;28;20044;-78
2023/02/13 06:26:57;;;;;;;15.82;11.13;;;;;;;2.17;76.36;98587.38;5076079;28;20123;-82
2023/02/13 06:29:25;;;;;;;15.75;10.45;;;;;;;2.16;76.42;98590.03;5140780;22;20165;-80
2023/02/13 06:31:52;;;;;;;15.75;11.20;;;;;;;2.15;76.26;98596.94;5073380;28;20553;-80
2023/02/13 06:34:20;;;;;;;15.88;11.05;;;;;;;2.12;76.54;98598.81;5072827;28;20502;-81
2023/02/13 06:36:48;;;;;;;15.63;10.88;;;;;;;2.05;76.41;98604.28;5073573;28;20131;-81
2023/02/13 06:39:15;;;;;;;16.52;11.15;;;;;;;2.06;76.57;98605.97;5072351;28;20048;-81
2023/02/13 06:41:44;;;;;;;15.90;9.90;;;;;;;2.06;76.28;98611.09;5073240;28;20430;-81
2023/02/13 06:44:12;;;;;;;15.70;10.32;;;;;;;2.10;76.21;98613.50;5072840;28;20138;-81
2023/02/13 06:46:40;;;;;;;18.25;11.15;;;;;;;2.11;76.31;98615.19;5073167;28;20086;-81
2023/02/13 06:49:09;;;;;;;15.82;11.13;;;;;;;2.14;76.42;98620.16;5072011;28;20049;-81
2023/02/13 06:51:36;;;;;;;16.65;11.02;;;;;;;2.17;76.22;98620.03;5073110;28;20063;-81
2023/02/13 06:54:04;;;;;;;18.90;11.85;;;;;;;2.19;76.58;98626.75;5072722;28;20455;-81
2023/02/13 06:56:32;;;;;;;18.13;11.77;;;;;;;2.24;76.23;98629.09;5072656;28;20047;-81
2023/02/13 06:59:01;;;;;;;15.07;10.38;;;;;;;2.30;76.79;98622.81;5072162;28;20493;-81
2023/02/13 07:01:29;;;;;;;16.38;10.90;;;;;;;2.34;76.49;98629.44;5072797;28;20047;-80
2023/02/13 07:03:56;;;;;;;17.55;11.52;;;;;;;2.33;76.33;98628.59;5072746;28;20052;-81
2023/02/13 07:06:24;;;;;;;17.40;10.95;;;;;;;2.36;76.70;98633.63;5072414;28;20048;-81
2023/02/13 07:08:54;;;;;;;14.60;10.10;;;;;;;2.37;77.10;98631.88;5072344;28;20418;-81
2023/02/13 07:11:24;;;;;;;15.48;10.35;;;;;;;2.38;76.47;98639.50;5073089;28;20083;-81
2023/02/13 07:13:51;;;;;;;15.32;10.40;;;;;;;2.39;76.42;98632.63;5076462;28;20416;-81
2023/02/13 07:16:21;;;;;;;15.60;10.95;;;;;;;2.40;75.74;98632.53;5076569;28;20410;-80
2023/02/13 07:18:48;;;;;;;16.35;11.00;;;;;;;2.44;75.96;98631.44;5075741;28;20051;-81
2023/02/13 07:21:16;;;;;;;15.93;10.82;;;;;;;2.48;75.67;98630.38;5076774;28;20091;-80
2023/02/13 07:23:44;;;;;;;16.35;11.18;;;;;;;2.54;75.78;98631.81;5076694;28;20040;-82
2023/02/13 07:26:11;;;;;;;16.70;11.55;;;;;;;2.67;75.25;98625.09;5076433;28;20513;-81
2023/02/13 07:28:39;;;;;;;17.27;11.88;;;;;;;2.95;75.61;98628.75;5075754;28;20056;-81
2023/02/13 07:31:06;;;;;;;15.77;11.18;;;;;;;3.46;75.54;98625.94;5076462;28;20422;-81
2023/02/13 07:33:36;;;;;;;14.52;10.18;;;;;;;4.32;72.26;98626.06;5076563;28;20056;-81
2023/02/13 07:36:04;;;;;;;18.75;11.13;;;;;;;4.91;69.75;98628.47;5076452;28;20045;-80
2023/02/13 07:38:33;;;;;;;15.98;11.07;;;;;;;5.23;69.04;98623.84;5075573;28;20127;-80
2023/02/13 07:41:02;;;;;;;17.05;10.55;;;;;;;5.83;67.42;98624.31;5076285;28;20052;-81
2023/02/13 07:43:30;;;;;;;17.13;10.55;;;;;;;5.98;65.70;98626.72;5075996;28;20490;-81
2023/02/13 07:45:59;;;;;;;13.18;9.32;;;;;;;5.90;66.24;98630.72;5075960;28;20056;-81
2023/02/13 07:48:27;;;;;;;12.90;9.60;;;;;;;5.95;65.02;98626.13;5075649;28;20139;-81
2023/02/13 07:51:00;;;;;;;12.45;9.10;;;;;;;5.65;63.99;98632.34;5075609;28;20139;-81
2023/02/13 07:53:27;;;;;;;;;;;;;;;5.25;66.05;98632.34;5076626;28;20056;-81
2023/02/13 07:55:55;;;;;;;15.18;10.10;;;;;;;4.80;67.78;98633.50;5075886;28;20366;-81
2023/02/13 07:58:23;;;;;;;14.02;9.57;;;;;;;4.45;69.00;98632.13;5075192;28;20044;-81
2023/02/13 08:00:51;;;;;;;12.93;9.50;;;;;;;4.24;69.35;98636.00;5076019;28;20048;-81
2023/02/13 08:03:19;;;;;;;14.32;10.38;;;;;;;4.06;71.17;98643.94;5075829;28;20070;-81
2023/02/13 08:05:48;;;;;;;11.57;9.05;;;;;;;3.96;70.61;98644.56;5076115;28;20049;-80
2023/02/13 08:08:17;;;;;;;16.33;9.90;;;;;;;3.85;70.97;98640.06;5075096;28;20512;-81
2023/02/13 08:13:36;;;;;;;11.82;8.55;;;;;;;3.82;71.88;98638.44;5001526;28;20050;-80
2023/02/13 08:16:04;;;;;;;12.52;8.80;;;;;;;3.85;71.69;98632.31;5079793;28;20049;-81
2023/02/13 08:18:31;;;;;;;14.60;9.43;;;;;;;3.89;71.20;98628.59;5075737;28;20407;-81
2023/02/13 08:21:01;;;;;;;13.27;9.20;;;;;;;3.95;71.83;98643.75;5075527;28;20135;-81
2023/02/13 08:23:30;;;;;;;13.60;9.35;;;;;;;4.06;71.21;98646.50;5074955;28;20052;-81
2023/02/13 08:26:00;;;;;;;12.90;9.02;;;;;;;4.13;70.90;98637.50;5075087;28;20051;-81
2023/02/13 08:28:28;;;;;;;13.50;8.95;;;;;;;4.25;70.43;98629.94;5074546;28;20490;-81
2023/02/13 08:30:56;;;;;;;10.65;7.53;;;;;;;4.39;70.18;98629.91;5075545;28;20048;-81
2023/02/13 08:33:23;;;;;;;11.65;7.72;;;;;;;4.54;69.91;98626.41;5075446;28;20063;-81
2023/02/13 08:35:51;;;;;;;11.70;8.40;;;;;;;4.75;69.71;98624.25;5075567;28;20044;-81
2023/02/13 08:38:19;;;;;;;10.02;6.93;;;;;;;4.98;69.11;98628.91;5074466;28;20123;-81
2023/02/13 08:40:48;;;;;;;10.75;7.82;;;;;;;5.20;70.19;98623.22;5075503;28;20062;-81
2023/02/13 08:43:16;;;;;;;11.13;8.30;;;;;;;5.44;68.56;98631.16;5074930;28;20132;-81
2023/02/13 08:45:44;;;;;;;12.25;8.00;;;;;;;5.59;68.44;98632.75;5075713;28;20131;-81
2023/02/13 08:56:18;;;;;;;8.25;6.72;;;;;;;6.10;66.40;98629.41;6301300;22;20866;-79
2023/02/13 08:58:48;;;;;;;9.48;7.20;;;;;;;6.28;67.29;98632.53;5087588;28;20060;-79
2023/02/13 09:01:16;;;;;;;9.90;7.20;;;;;;;6.47;66.92;98639.88;5090909;28;20410;-79
2023/02/13 09:03:44;;;;;;;10.77;7.93;;;;;;;6.60;66.19;98636.34;5077022;28;20049;-79
2023/02/13 09:06:11;;;;;;;10.95;7.47;;;;;;;6.78;65.62;98631.63;5075916;28;20045;-79
2023/02/13 09:08:39;;;;;;;9.95;7.38;;;;;;;6.91;64.93;98631.59;5074798;28;20052;-79
2023/02/13 09:11:07;;;;;;;11.45;7.80;;;;;;;7.03;64.12;98636.84;5076466;28;20051;-81
2023/02/13 09:13:36;;;;;;;10.52;7.85;;;;;;;7.13;64.27;98640.47;5075270;28;20056;-79
2023/02/13 09:16:06;;;;;;;9.52;6.68;;;;;;;7.24;63.13;98640.50;5075049;28;20087;-81
2023/02/13 09:18:34;;;;;;;9.02;7.05;;;;;;;7.34;61.90;98633.69;5073934;28;20074;-81
2023/02/13 09:21:04;;;;;;;9.60;7.35;;;;;;;7.43;62.55;98638.25;5075077;28;20067;-81
2023/02/13 09:23:33;;;;;;;9.95;7.60;;;;;;;7.55;61.86;98640.88;5074442;28;20088;-81
2023/02/13 09:26:02;;;;;;;8.77;6.60;;;;;;;7.64;61.88;98635.00;5076195;28;20448;-79
2023/02/13 09:28:31;;;;;;;9.38;6.93;;;;;;;7.74;62.07;98640.34;5075120;28;20044;-80
2023/02/13 09:31:00;;;;;;;9.13;6.82;;;;;;;7.82;61.40;98646.63;5075769;28;20054;-79
2023/02/13 09:33:28;;;;;;;9.52;7.70;;;;;;;7.96;60.68;98645.59;5075376;28;20078;-79
2023/02/13 09:35:55;;;;;;;9.55;7.45;;;;;;;8.00;60.26;98635.78;5075074;28;20067;-79
2023/02/13 09:38:23;;;;;;;11.27;7.20;;;;;;;8.10;61.62;98641.97;5075254;28;20048;-79
2023/02/13 09:40:56;;;;;;;10.27;7.43;;;;;;;8.27;61.35;98648.50;5075269;28;20506;-79
2023/02/13 09:43:29;;;;;;;10.63;7.97;;;;;;;8.37;60.71;98640.81;5075941;28;20123;-79
2023/02/13 09:46:02;;;;;;;9.05;7.18;;;;;;;8.49;61.33;98647.69;5075501;28;20041;-79
2023/02/13 09:48:31;;;;;;;8.95;6.80;;;;;;;8.60;59.61;98641.69;5073788;28;20052;-79
2023/02/13 09:51:00;;;;;;;9.82;6.97;;;;;;;8.63;59.82;98644.03;5075841;28;20052;-79
2023/02/13 09:53:32;;;;;;;7.25;6.35;;;;;;;8.76;60.12;98641.31;5075187;28;20080;-79
2023/02/13 09:56:08;;;;;;;10.17;7.67;;;;;;;8.87;59.70;98636.06;5075289;28;20487;-79
2023/02/13 09:58:41;;;;;;;9.98;7.20;;;;;;;8.98;57.51;98632.63;5073361;28;20368;-79
2023/02/13 10:01:21;;;;;;;8.18;6.32;;;;;;;9.06;58.39;98641.47;5074772;28;20056;-79
2023/02/13 10:04:12;;;;;;;7.60;6.10;;;;;;;9.16;60.23;98638.13;5074947;28;20049;-79
2023/02/13 10:06:48;;;;;;;7.50;5.72;;;;;;;9.34;60.07;98641.88;5074228;28;20557;-79
2023/02/13 10:09:26;;;;;;;7.85;6.10;;;;;;;9.41;57.10;98645.66;5073371;28;20464;-79
2023/02/13 10:12:21;;;;;;;7.38;5.75;;;;;;;9.49;56.65;98645.03;5074446;28;20053;-79
2023/02/13 10:14:58;;;;;;;8.20;6.10;;;;;;;9.66;57.06;98648.84;5073882;28;20052;-79
2023/02/13 10:17:32;;;;;;;7.93;6.10;;;;;;;9.76;57.78;98648.94;5082506;28;20108;-79
2023/02/13 10:20:04;;;;;;;8.68;6.07;;;;;;;9.83;56.12;98645.69;5096779;28;20052;-78
2023/02/13 10:22:37;;;;;;;8.27;5.78;;;;;;;9.89;55.29;98647.78;5096258;28;20056;-79
2023/02/13 10:25:12;;;;;;;6.85;5.28;;;;;;;9.94;56.50;98647.41;5096201;28;20075;-79
2023/02/13 10:27:45;;;;;;;7.40;5.97;;;;;;;9.98;56.92;98658.44;5095304;28;20083;-79
2023/02/13 10:30:18;;;;;;;;;;;;;;;10.05;56.09;98654.34;5089288;28;20056;-79
2023/02/13 10:33:10;;;;;;;6.85;5.82;;;;;;;10.07;55.40;98657.66;5076398;28;20313;-79
2023/02/13 10:35:38;;;;;;;7.80;6.20;;;;;;;10.08;55.73;98654.09;5075166;28;20059;-79
2023/02/13 10:38:16;;;;;;;8.77;6.68;;;;;;;10.13;54.22;98656.31;5083184;28;20056;-79
2023/02/13 10:40:59;;;;;;;10.35;7.03;;;;;;;10.25;55.32;98650.06;5076647;28;20064;-79
2023/02/13 10:43:28;;;;;;;;;;;;;;;10.26;54.69;98652.56;5075552;28;20488;-79
2023/02/13 10:46:10;;;;;;;9.15;6.50;;;;;;;10.21;54.91;98644.28;5074737;28;19927;-79
2023/02/13 10:48:59;;;;;;;9.80;6.53;;;;;;;10.34;55.12;98643.28;5072395;28;20752;-79
2023/02/13 10:51:34;;;;;;;8.40;6.63;;;;;;;10.43;56.78;98639.88;5070561;28;20049;-79
2023/02/13 10:54:24;;;;;;;9.30;6.70;;;;;;;10.47;54.97;98638.66;5073548;28;20573;-79
2023/02/13 10:57:01;;;;;;;7.03;6.28;;;;;;;10.52;54.43;98623.47;5072918;28;20048;-79
2023/02/13 10:59:50;;;;;;;8.30;6.38;;;;;;;10.61;53.51;98620.06;5072998;28;20056;-79
2023/02/13 11:02:23;;;;;;;7.43;5.90;;;;;;;10.66;52.25;98612.63;5073034;28;20051;-79
2023/02/13 11:05:00;;;;;;;6.97;5.93;;;;;;;10.77;54.44;98613.50;5073554;28;20135;-79
2023/02/13 11:07:30;;;;;;;9.15;6.35;;;;;;;10.86;54.38;98608.28;5073480;28;20045;-79
2023/02/13 11:10:03;;;;;;;7.60;6.00;;;;;;;10.99;53.36;98605.44;5073226;28;20041;-79
2023/02/13 11:12:32;;;;;;;9.90;7.15;;;;;;;11.06;51.89;98609.19;5072796;28;20051;-79
2023/02/13 11:15:02;;;;;;;8.32;6.32;;;;;;;11.13;51.50;98599.84;5073571;28;20482;-79
2023/02/13 11:17:32;;;;;;;8.40;6.82;;;;;;;11.14;50.96;98601.47;5072951;28;20131;-79
2023/02/13 11:20:04;;;;;;;8.35;6.65;;;;;;;11.16;50.36;98600.53;5072002;28;20610;-79
2023/02/13 11:22:35;;;;;;;8.07;6.60;;;;;;;11.29;51.09;98608.91;5073780;28;20476;-79
2023/02/13 11:25:07;;;;;;;7.20;5.97;;;;;;;11.47;51.54;98599.41;5072718;28;20140;-79
2023/02/13 11:27:37;;;;;;;8.05;6.20;;;;;;;11.58;52.17;98592.41;5073441;28;20055;-79
2023/02/13 11:30:11;;;;;;;7.18;6.25;;;;;;;11.66;52.43;98592.53;5074797;28;20144;-79
2023/02/13 11:32:38;;;;;;;8.35;6.78;;;;;;;11.74;50.49;98593.50;5072601;28;20049;-79
2023/02/13 11:35:29;;;;;;;7.32;6.13;;;;;;;11.86;49.11;98595.94;5080683;28;20135;-80
2023/02/13 11:38:24;;;;;;;9.07;6.55;;;;;;;11.91;50.42;98599.00;5072499;28;20486;-79
2023/02/13 11:41:05;;;;;;;8.77;6.90;;;;;;;12.01;50.16;98588.53;5073198;28;20051;-79
2023/02/13 11:43:36;;;;;;;7.43;6.15;;;;;;;12.24;51.66;98595.03;5074782;28;20060;-79
2023/02/13 11:46:07;;;;;;;9.52;6.78;;;;;;;12.44;49.15;98595.81;5081683;28;20047;-79
2023/02/13 11:48:35;;;;;;;9.02;6.55;;;;;;;12.47;48.77;98592.88;5090350;28;20067;-79
2023/02/13 11:51:04;;;;;;;8.15;6.53;;;;;;;12.51;47.74;98586.41;5082298;28;20080;-79
2023/02/13 11:53:37;;;;;;;8.15;6.30;;;;;;;12.55;48.60;98587.75;5075263;28;20045;-80
2023/02/13 11:56:09;;;;;;;7.82;6.13;;;;;;;12.64;50.36;98586.06;5073129;28;20127;-79
2023/02/13 11:58:38;;;;;;;5.57;5.05;;;;;;;12.82;50.59;98583.47;5071889;28;20052;-79
2023/02/13 12:01:25;;;;;;;8.35;6.72;;;;;;;13.01;49.20;98579.06;5078954;28;20044;-80
2023/02/13 12:04:15;;;;;;;9.18;7.07;;;;;;;13.14;47.24;98580.38;5077576;28;20486;-80
2023/02/13 12:06:59;;;;;;;10.85;6.60;;;;;;;13.26;46.58;98577.53;5079820;28;20054;-80
2023/02/13 12:09:27;;;;;;;6.97;6.28;;;;;;;13.31;46.50;98583.16;5077081;28;20490;-80
2023/02/13 12:11:58;;;;;;;7.90;6.20;;;;;;;13.44;47.10;98586.22;5078954;28;20135;-79
2023/02/13 12:14:30;;;;;;;7.43;6.32;;;;;;;13.68;46.48;98575.09;5079204;28;20076;-80
2023/02/13 12:17:03;;;;;;;7.47;6.28;;;;;;;13.86;45.92;98579.47;5079510;28;20044;-80
2023/02/13 12:19:37;;;;;;;8.80;6.15;;;;;;;13.86;44.32;98580.31;5080582;28;20048;-80
2023/02/13 12:22:29;;;;;;;7.63;6.32;;;;;;;13.84;45.88;98578.81;5085242;28;20486;-80
2023/02/13 12:25:31;;;;;;;6.80;5.93;;;;;;;13.77;44.01;98573.34;5086564;28;20460;-80
2023/02/13 12:28:14;;;;;;;7.10;6.40;;;;;;;13.50;45.09;98572.50;5085952;28;20050;-80
2023/02/13 12:31:09;;;;;;;8.05;6.53;;;;;;;13.28;44.69;98575.56;5082005;28;20522;-80
2023/02/13 12:34:03;;;;;;;7.05;6.35;;;;;;;13.14;46.75;98571.66;5086233;28;20068;-80
2023/02/13 12:36:39;;;;;;;8.73;7.20;;;;;;;12.90;45.95;98575.72;5081489;28;20060;-80
2023/02/13 12:39:24;;;;;;;7.82;6.70;;;;;;;12.69;46.36;98569.91;5079567;28;20045;-80
2023/02/13 12:42:06;;;;;;;7.85;6.47;;;;;;;12.51;47.32;98573.31;5079531;28;20049;-80
2023/02/13 12:44:57;;;;;;;9.35;6.53;;;;;;;12.35;47.63;98571.31;5079309;28;20135;-80
2023/02/13 12:47:29;;;;;;;8.02;6.43;;;;;;;12.25;47.38;98580.19;5082914;28;20135;-80
2023/02/13 12:50:23;;;;;;;7.78;6.50;;;;;;;12.14;48.15;98579.38;5081367;28;20115;-80
2023/02/13 12:53:20;;;;;;;10.32;6.82;;;;;;;11.98;47.47;98579.13;5083309;28;20059;-80
2023/02/13 12:56:21;;;;;;;11.95;8.68;;;;;;;11.71;47.78;98578.06;5080832;28;20158;-80
2023/02/13 12:59:01;;;;;;;11.15;7.75;;;;;;;11.47;47.77;98581.13;5083943;28;20062;-80
2023/02/13 13:01:56;;;;;;;9.32;6.93;;;;;;;11.20;47.97;98573.19;5082877;28;20083;-80
2023/02/13 13:04:36;;;;;;;8.85;6.97;;;;;;;10.99;48.82;98575.91;5079301;28;20053;-80
2023/02/13 13:07:19;;;;;;;8.18;6.82;;;;;;;10.90;52.01;98580.16;5078179;28;20139;-80
2023/02/13 13:10:12;;;;;;;11.25;7.88;;;;;;;10.80;49.39;98579.28;5074895;28;20142;-79
2023/02/13 13:12:50;;;;;;;9.45;7.13;;;;;;;10.53;49.69;98580.75;5075610;28;20526;-80